Archival Weather

Snohomish County (Paine Fld)

Everett, Washington (KPAE)

Report from: Monday, October 23, 2023 4:53 AM PDT
Current time: Monday, June 17, 2024 1:37 AM PDT

Current weather – Weather history – Daily summaries
Weather forecast

Temperature10.6°C (51.1°F)
Dew point8.9°C (48.0°F)
Winds Calm
Visibility9 mi. (14.5 km)
Clouds Few clouds 500 ft. (152 m)
Scattered clouds 1,800 ft. (549 m)
Ceiling: Overcast 3,800 ft. (1,158 m)
Altimeter29.97 in.Hg (1015 mB)
Precip last 24 hours0.02 in. (1 mm)
Relative humidity89 %
Density altitude-426 ft. (-130 m)
Sea-level pressure101.5 kPa (1015 mB, 29.98 in.Hg)
Max temp last 6 hours10.6°C (51.1°F)
Min temp last 6 hours7.8°C (46.0°F)
Remarks Fully automated report
Automated weather observing station with precipitation discriminator
Pressure rising more quickly
Flight conditions Visual Meteorological Conditions
Raw dataKPAE 231153Z AUTO 00000KT 9SM FEW005 SCT018 OVC038 11/09 A2997 RMK AO2 SLP151 70002 T01060089 10106 20078 53001
An error has occurred. This application may no longer respond until reloaded. Reload 🗙